CYQR

Regina International Airport

Regina, Saskatchewan, Canada
TAF CYQR 201738Z 2018/2118 14015KT P6SM FEW250 RMK NXT FCST BY 210000Z
Issued Valid From Valid To
Apr-20 @ 17:38 UTC
(54 minutes ago)
Apr-20 @ 18:00 UTC
(32 minutes ago)
Apr-21 @ 18:00 UTC
(in 23 hours)
Apr-20 @ 18:00 to Apr-21 @ 18:00
TAF CYQR 201738Z 2018/2118 14015KT P6SM FEW250 RMK NXT FCST BY 210000Z
Wind Visibility Clouds
140° at 15 knots Greater than 6 miles
  • Few at 25,000' AGL
TAF CYQR 201738Z 2018/2118 14015KT P6SM FEW250 RMK NXT FCST BY 210000Z
Issued Apr-20 @ 17:38 UTC
(54 minutes ago)
Valid From Apr-20 @ 18:00 UTC
(32 minutes ago)
Valid To Apr-21 @ 18:00 UTC
(in 23 hours)
Apr-20 @ 18:00 - Apr-21 @ 18:00
Wind Visibility
140° at 15 knots Greater than 6 miles
Clouds
  • Few at 25,000' AGL